KBBG

Branson Airport

Branson, Missouri, USA
METAR KBBG 211258Z 34005KT 10SM SCT120 24/20 A3001
Observed Flight Rules
Jul-21 @ 12:58 UTC (54 minutes ago) Visual Flight Rules
Wind Visibility Clouds
340° at 5 knots 10 miles
  • Scattered at 12,000' AGL
Temperatures Readings
Current 24°C / 75°F
Dewpoint 20°C / 68°F
Humidity 78%
Altimeter 30.01" Hg
Pressure 1016 hPa
Elevation 397
METAR KBBG 211258Z 34005KT 10SM SCT120 24/20 A3001
Observed Flight Rules
Jul-21 @ 12:58 UTC
(54 minutes ago)
VFR
Wind Visibility
340° at 5 knots 10 miles
Clouds
  • Scattered at 12,000' AGL
Temperature Dewpoint
24°C / 75°F 20°C / 68°F
Humidity Altimeter Pressure
78% 30.01" Hg 1016 hPa